createdAt,value
2023-05-09T00:00:42.276Z,0.00
2023-05-09T00:01:42.682Z,0.00
2023-05-09T00:02:43.103Z,0.00
2023-05-09T00:03:43.374Z,0.00
2023-05-09T00:04:43.780Z,0.00
2023-05-09T00:05:44.108Z,0.00
2023-05-09T00:06:44.468Z,0.00
2023-05-09T00:07:44.870Z,0.00
2023-05-09T00:08:45.200Z,0.00
2023-05-09T00:09:45.555Z,0.00
2023-05-09T00:10:45.888Z,0.00
2023-05-09T00:11:46.254Z,0.00
2023-05-09T00:12:46.667Z,0.00
2023-05-09T00:13:46.985Z,0.00
2023-05-09T00:14:47.342Z,0.00
2023-05-09T00:15:47.703Z,0.00
2023-05-09T00:16:48.096Z,0.00
2023-05-09T00:17:48.532Z,0.00
2023-05-09T00:18:48.805Z,0.00
2023-05-09T00:19:49.164Z,0.00
2023-05-09T00:20:49.527Z,0.00
2023-05-09T00:21:49.893Z,0.00
2023-05-09T00:22:50.276Z,0.00
2023-05-09T00:23:50.636Z,0.00
2023-05-09T00:24:50.984Z,0.00
2023-05-09T00:25:51.303Z,0.00
2023-05-09T00:26:51.666Z,0.00
2023-05-09T00:27:52.048Z,0.00
2023-05-09T00:28:52.377Z,0.00
2023-05-09T00:29:52.744Z,0.00
2023-05-09T00:30:53.106Z,0.00
2023-05-09T00:31:53.513Z,0.00
2023-05-09T00:32:53.895Z,0.00
2023-05-09T00:33:54.184Z,0.00
2023-05-09T00:34:54.527Z,0.00
2023-05-09T00:35:54.921Z,0.00
2023-05-09T00:36:55.274Z,0.00
2023-05-09T00:37:55.667Z,0.00
2023-05-09T00:38:55.996Z,0.00
2023-05-09T00:39:56.354Z,0.00
2023-05-09T00:40:56.733Z,0.00
2023-05-09T00:41:57.091Z,0.00
2023-05-09T00:42:57.488Z,0.00
2023-05-09T00:43:57.846Z,0.00
2023-05-09T00:44:58.187Z,0.00
2023-05-09T00:45:58.591Z,0.00
2023-05-09T00:46:58.921Z,0.00
2023-05-09T00:47:59.320Z,0.00
2023-05-09T00:48:59.652Z,0.00
2023-05-09T00:50:00.022Z,0.00
2023-05-09T00:51:00.392Z,0.00
2023-05-09T00:52:00.742Z,0.00
2023-05-09T00:53:01.135Z,0.00
2023-05-09T00:54:01.460Z,0.00
2023-05-09T00:55:01.827Z,0.00
2023-05-09T00:56:02.198Z,0.00
2023-05-09T00:57:02.554Z,0.00
2023-05-09T00:58:02.982Z,0.00
2023-05-09T00:59:03.279Z,0.00
2023-05-09T01:00:03.636Z,0.00
2023-05-09T01:01:04.023Z,0.00
2023-05-09T01:02:04.385Z,0.00
2023-05-09T01:03:04.886Z,0.00
2023-05-09T01:04:05.101Z,0.00
2023-05-09T01:05:05.476Z,0.00
2023-05-09T01:06:05.836Z,0.00
2023-05-09T01:07:06.196Z,0.00
2023-05-09T01:08:06.583Z,0.00
2023-05-09T01:09:06.912Z,0.00
2023-05-09T01:10:07.283Z,0.00
2023-05-09T01:11:07.652Z,0.00
2023-05-09T01:12:08.052Z,0.00
2023-05-09T01:13:08.416Z,0.00
2023-05-09T01:14:08.715Z,0.00
2023-05-09T01:15:09.066Z,0.00
2023-05-09T01:16:09.487Z,0.00
2023-05-09T01:17:09.816Z,0.00
2023-05-09T01:18:10.239Z,0.00
2023-05-09T01:19:10.523Z,0.00
2023-05-09T01:20:10.926Z,0.00
2023-05-09T01:21:11.255Z,0.00
2023-05-09T01:22:11.627Z,0.00
2023-05-09T01:23:11.965Z,0.00
2023-05-09T01:24:12.282Z,0.00
2023-05-09T01:25:12.749Z,0.00
2023-05-09T01:26:13.049Z,0.00
2023-05-09T01:27:13.374Z,0.00
2023-05-09T01:28:13.768Z,0.00
2023-05-09T01:29:14.099Z,0.00
2023-05-09T01:30:14.455Z,0.00
2023-05-09T01:31:14.828Z,0.00
2023-05-09T01:32:15.193Z,0.00
2023-05-09T01:33:15.547Z,0.00
2023-05-09T01:34:15.876Z,0.00
2023-05-09T01:35:16.446Z,0.00
2023-05-09T01:36:16.590Z,0.00
2023-05-09T01:37:16.970Z,0.00
2023-05-09T01:38:17.353Z,0.00
2023-05-09T01:39:17.707Z,0.00
2023-05-09T01:40:18.073Z,0.00
2023-05-09T01:41:18.431Z,0.00
2023-05-09T01:42:18.807Z,0.00
2023-05-09T01:43:19.202Z,0.00
2023-05-09T01:44:19.530Z,0.00
2023-05-09T01:45:19.865Z,0.00
2023-05-09T01:46:20.267Z,0.00
2023-05-09T01:47:20.590Z,0.00
2023-05-09T01:48:20.976Z,0.00
2023-05-09T01:49:21.301Z,0.00
2023-05-09T01:50:21.678Z,0.00
2023-05-09T01:51:22.061Z,0.00
2023-05-09T01:52:22.418Z,0.00
2023-05-09T01:53:22.808Z,0.00
2023-05-09T01:54:23.159Z,0.00
2023-05-09T01:55:23.515Z,0.00
2023-05-09T01:56:23.883Z,0.00
2023-05-09T01:57:24.281Z,0.00
2023-05-09T01:58:24.616Z,0.00
2023-05-09T01:59:24.977Z,0.00
2023-05-09T02:00:25.353Z,0.00
2023-05-09T02:01:25.714Z,0.00
2023-05-09T02:02:26.177Z,0.00
2023-05-09T02:03:26.462Z,0.00
2023-05-09T02:04:26.785Z,0.00
2023-05-09T02:05:27.151Z,0.00
2023-05-09T02:06:27.511Z,0.00
2023-05-09T02:07:27.884Z,0.00
2023-05-09T02:08:28.254Z,0.00
2023-05-09T02:09:28.631Z,0.00
2023-05-09T02:10:28.955Z,0.00
2023-05-09T02:11:29.325Z,0.00
2023-05-09T02:12:29.687Z,0.00
2023-05-09T02:13:30.075Z,0.00
2023-05-09T02:14:30.410Z,0.00
2023-05-09T02:15:30.741Z,0.00
2023-05-09T02:16:31.244Z,0.00
2023-05-09T02:17:31.476Z,0.00
2023-05-09T02:18:31.829Z,0.00
2023-05-09T02:19:32.163Z,0.00
2023-05-09T02:20:32.518Z,0.00
2023-05-09T02:21:32.894Z,0.00
2023-05-09T02:22:33.224Z,0.00
2023-05-09T02:23:33.604Z,0.00
2023-05-09T02:24:33.974Z,0.00
2023-05-09T02:25:34.306Z,0.00
2023-05-09T02:26:34.682Z,0.00
2023-05-09T02:27:35.034Z,0.00
2023-05-09T02:28:35.453Z,0.00
2023-05-09T02:29:35.772Z,0.00
2023-05-09T02:30:36.120Z,0.00
2023-05-09T02:31:36.551Z,0.00
2023-05-09T02:32:36.831Z,0.00
2023-05-09T02:33:37.208Z,0.00
2023-05-09T02:34:37.532Z,0.00
2023-05-09T02:35:37.913Z,0.00
2023-05-09T02:36:38.266Z,0.00
2023-05-09T02:37:38.617Z,0.00
2023-05-09T02:38:39.026Z,0.00
2023-05-09T02:39:39.367Z,0.00
2023-05-09T02:40:39.713Z,0.00
2023-05-09T02:41:40.068Z,0.00
2023-05-09T02:42:40.428Z,0.00
2023-05-09T02:43:43.577Z,0.00
2023-05-09T02:44:41.171Z,0.00
2023-05-09T02:45:41.628Z,0.00
2023-05-09T02:46:47.783Z,0.00
2023-05-09T02:47:42.104Z,0.00
2023-05-09T02:48:42.264Z,0.00
2023-05-09T02:49:42.536Z,0.00
2023-05-09T02:50:42.890Z,0.00
2023-05-09T02:51:43.217Z,0.00
2023-05-09T02:52:43.454Z,0.00
2023-05-09T02:53:43.785Z,0.00
2023-05-09T02:54:44.055Z,0.00
2023-05-09T02:55:44.364Z,0.00
2023-05-09T02:56:44.719Z,0.00
2023-05-09T02:57:44.968Z,0.00
2023-05-09T02:58:45.149Z,0.00
2023-05-09T02:59:45.435Z,0.00
2023-05-09T03:00:45.727Z,0.00
2023-05-09T03:01:46.037Z,0.00
2023-05-09T03:02:46.315Z,0.00
2023-05-09T03:03:46.862Z,0.00
2023-05-09T03:04:46.869Z,0.00
2023-05-09T03:05:47.050Z,0.00
2023-05-09T03:06:47.327Z,0.00
2023-05-09T03:07:47.600Z,0.00
2023-05-09T03:08:47.788Z,0.00
2023-05-09T03:09:47.945Z,0.00
2023-05-09T03:10:48.107Z,0.00
2023-05-09T03:11:48.389Z,0.00
2023-05-09T03:12:48.573Z,0.00
2023-05-09T03:13:48.848Z,0.00
2023-05-09T03:14:49.001Z,0.00
2023-05-09T03:15:49.192Z,0.00
2023-05-09T03:16:49.439Z,0.00
2023-05-09T03:17:49.774Z,0.00
2023-05-09T03:18:49.937Z,5.62
2023-05-09T03:19:50.202Z,5.62
2023-05-09T03:20:50.366Z,5.62
2023-05-09T03:21:50.667Z,5.62
2023-05-09T03:22:50.968Z,5.62
2023-05-09T03:23:51.158Z,5.62
2023-05-09T03:24:51.313Z,5.62
2023-05-09T03:25:51.606Z,5.62
2023-05-09T03:26:51.786Z,11.25
2023-05-09T03:30:22.669Z,11.25
2023-05-09T03:31:23.865Z,16.88
2023-05-09T03:32:24.193Z,16.88
2023-05-09T03:33:24.343Z,16.88
2023-05-09T03:34:24.538Z,16.88
2023-05-09T03:35:24.741Z,16.88
2023-05-09T03:36:24.992Z,16.88
2023-05-09T03:37:26.927Z,16.88
2023-05-09T03:38:25.351Z,22.50
2023-05-09T03:39:25.674Z,22.50
2023-05-09T03:40:25.803Z,22.50
2023-05-09T03:41:25.978Z,22.50
2023-05-09T03:42:26.275Z,28.12
2023-05-09T03:43:26.462Z,28.12
2023-05-09T03:44:26.671Z,28.12
2023-05-09T03:45:26.825Z,33.75
2023-05-09T03:46:27.083Z,33.75
2023-05-09T03:47:27.201Z,33.75
2023-05-09T03:48:27.395Z,39.38
2023-05-09T03:49:27.722Z,39.38
2023-05-09T03:50:27.988Z,39.38
2023-05-09T03:51:28.149Z,45.00
2023-05-09T03:52:28.336Z,45.00
2023-05-09T03:53:28.497Z,45.00
2023-05-09T03:54:28.811Z,45.00
2023-05-09T03:55:28.978Z,50.62
2023-05-09T03:56:29.157Z,50.62
2023-05-09T03:57:29.464Z,50.62
2023-05-09T03:58:29.756Z,50.62
2023-05-09T03:59:29.969Z,56.25
2023-05-09T04:00:30.221Z,56.25
2023-05-09T04:01:30.420Z,56.25
2023-05-09T04:02:30.776Z,61.88
2023-05-09T04:03:31.070Z,61.88
2023-05-09T04:04:31.213Z,61.88
2023-05-09T04:05:31.355Z,61.88
2023-05-09T04:06:31.548Z,67.50
2023-05-09T04:07:31.759Z,67.50
2023-05-09T04:08:31.906Z,73.12
2023-05-09T04:09:32.097Z,73.12
2023-05-09T04:10:32.255Z,73.12
2023-05-09T04:11:32.420Z,78.75
2023-05-09T04:12:32.596Z,78.75
2023-05-09T04:13:32.761Z,84.38
2023-05-09T04:14:32.960Z,84.38
2023-05-09T04:15:33.126Z,90.00
2023-05-09T04:16:33.371Z,95.62
2023-05-09T04:17:33.492Z,101.25
2023-05-09T04:18:33.652Z,112.50
2023-05-09T04:19:33.882Z,118.12
2023-05-09T04:20:34.043Z,118.12
2023-05-09T04:21:34.236Z,123.75
2023-05-09T04:22:34.469Z,129.38
2023-05-09T04:23:34.618Z,129.38
2023-05-09T04:24:34.822Z,135.00
2023-05-09T04:25:34.980Z,135.00
2023-05-09T04:26:35.172Z,135.00
2023-05-09T04:27:35.358Z,140.62
2023-05-09T04:28:35.555Z,146.25
2023-05-09T04:29:35.761Z,146.25
2023-05-09T04:30:35.943Z,146.25
2023-05-09T04:31:36.220Z,157.50
2023-05-09T04:32:36.358Z,168.75
2023-05-09T04:33:36.480Z,174.38
2023-05-09T04:34:36.693Z,185.62
2023-05-09T04:35:36.894Z,191.25
2023-05-09T04:36:37.096Z,191.25
2023-05-09T04:37:37.287Z,196.88
2023-05-09T04:38:37.430Z,213.75
2023-05-09T04:39:37.678Z,213.75
2023-05-09T04:40:37.800Z,213.75
2023-05-09T04:41:37.999Z,213.75
2023-05-09T04:42:38.313Z,219.38
2023-05-09T04:43:38.375Z,219.38
2023-05-09T04:44:38.607Z,225.00
2023-05-09T04:45:38.745Z,236.25
2023-05-09T04:46:38.996Z,241.88
2023-05-09T04:47:39.124Z,241.88
2023-05-09T04:48:39.306Z,236.25
2023-05-09T04:49:39.520Z,236.25
2023-05-09T04:50:39.684Z,241.88
2023-05-09T04:51:39.882Z,247.50
2023-05-09T04:52:40.065Z,258.75
2023-05-09T04:53:40.226Z,258.75
2023-05-09T04:54:40.419Z,258.75
2023-05-09T04:55:40.609Z,253.12
2023-05-09T04:56:40.804Z,258.75
2023-05-09T04:57:40.990Z,258.75
2023-05-09T04:58:41.196Z,253.12
2023-05-09T04:59:41.394Z,247.50
2023-05-09T05:00:41.547Z,247.50
2023-05-09T05:01:41.788Z,258.75
2023-05-09T05:02:41.938Z,270.00
2023-05-09T05:03:42.101Z,275.62
2023-05-09T05:04:42.347Z,281.25
2023-05-09T05:05:42.525Z,286.88
2023-05-09T05:06:42.650Z,292.50
2023-05-09T05:07:42.847Z,292.50
2023-05-09T05:08:43.019Z,298.12
2023-05-09T05:09:43.238Z,298.12
2023-05-09T05:10:43.401Z,298.12
2023-05-09T05:11:57.068Z,303.75
2023-05-09T05:12:43.799Z,303.75
2023-05-09T05:13:44.019Z,309.38
2023-05-09T05:14:44.164Z,303.75
2023-05-09T05:15:44.426Z,315.00
2023-05-09T05:16:44.505Z,309.38
2023-05-09T05:17:44.725Z,286.88
2023-05-09T05:18:44.879Z,253.12
2023-05-09T05:19:45.075Z,219.38
2023-05-09T05:20:45.234Z,213.75
2023-05-09T05:21:45.423Z,213.75
2023-05-09T05:22:45.641Z,213.75
2023-05-09T05:23:45.788Z,213.75
2023-05-09T05:24:46.018Z,213.75
2023-05-09T05:25:46.173Z,213.75
2023-05-09T05:26:46.363Z,219.38
2023-05-09T05:27:46.538Z,225.00
2023-05-09T05:28:46.742Z,225.00
2023-05-09T05:29:46.952Z,225.00
2023-05-09T05:30:47.086Z,225.00
2023-05-09T05:31:47.402Z,225.00
2023-05-09T05:32:47.509Z,225.00
2023-05-09T05:33:47.649Z,225.00
2023-05-09T05:34:47.816Z,225.00
2023-05-09T05:35:47.978Z,225.00
2023-05-09T05:36:48.180Z,225.00
2023-05-09T05:37:49.103Z,225.00
2023-05-09T05:38:48.528Z,230.62
2023-05-09T05:39:48.753Z,236.25
2023-05-09T05:40:48.879Z,236.25
2023-05-09T05:41:49.068Z,230.62
2023-05-09T05:42:49.268Z,225.00
2023-05-09T05:43:49.509Z,219.38
2023-05-09T05:44:49.700Z,219.38
2023-05-09T05:45:49.898Z,219.38
2023-05-09T05:46:50.010Z,219.38
2023-05-09T05:47:50.356Z,219.38
2023-05-09T05:48:50.404Z,219.38
2023-05-09T05:49:50.626Z,219.38
2023-05-09T05:50:50.777Z,219.38
2023-05-09T05:51:50.975Z,219.38
2023-05-09T05:52:51.159Z,225.00
2023-05-09T05:53:51.341Z,225.00
2023-05-09T05:54:51.802Z,225.00
2023-05-09T05:55:51.715Z,225.00
2023-05-09T05:56:51.911Z,225.00
2023-05-09T05:57:52.076Z,225.00
2023-05-09T05:58:52.271Z,230.62
2023-05-09T05:59:52.485Z,230.62
2023-05-09T06:00:52.635Z,230.62
2023-05-09T06:01:52.899Z,230.62
2023-05-09T06:02:53.112Z,236.25
2023-05-09T06:03:53.278Z,236.25
2023-05-09T06:04:55.326Z,236.25
2023-05-09T06:05:53.549Z,236.25
2023-05-09T06:06:53.738Z,236.25
2023-05-09T06:07:53.929Z,236.25
2023-05-09T06:08:54.125Z,236.25
2023-05-09T06:09:54.341Z,241.88
2023-05-09T06:10:54.507Z,241.88
2023-05-09T06:11:54.697Z,241.88
2023-05-09T06:12:54.901Z,241.88
2023-05-09T06:13:55.074Z,241.88
2023-05-09T06:14:55.269Z,241.88
2023-05-09T06:15:57.702Z,241.88
2023-05-09T06:16:55.682Z,247.50
2023-05-09T06:17:55.930Z,247.50
2023-05-09T06:18:56.341Z,247.50
2023-05-09T06:19:56.210Z,253.12
2023-05-09T06:20:56.400Z,253.12
2023-05-09T06:21:56.588Z,253.12
2023-05-09T06:22:56.768Z,258.75
2023-05-09T06:24:08.501Z,258.75
2023-05-09T06:24:57.179Z,258.75
2023-05-09T06:25:57.374Z,264.38
2023-05-09T06:26:57.562Z,264.38
2023-05-09T06:27:57.747Z,270.00
2023-05-09T06:28:57.948Z,270.00
2023-05-09T06:29:58.142Z,270.00
2023-05-09T06:30:58.309Z,275.62
2023-05-09T06:31:58.606Z,275.62
2023-05-09T06:32:58.767Z,281.25
2023-05-09T06:33:58.842Z,281.25
2023-05-09T06:34:59.055Z,286.88
2023-05-09T06:35:59.236Z,292.50
2023-05-09T06:36:59.385Z,292.50
2023-05-09T06:37:59.566Z,298.12
2023-05-09T06:38:59.757Z,303.75
2023-05-09T06:39:59.968Z,309.38
2023-05-09T06:41:00.116Z,315.00
2023-05-09T06:42:00.263Z,315.00
2023-05-09T06:43:00.443Z,320.62
2023-05-09T06:44:00.652Z,326.25
2023-05-09T06:45:00.938Z,331.88
2023-05-09T06:46:01.060Z,337.50
2023-05-09T06:47:01.226Z,343.12
2023-05-09T06:48:01.441Z,348.75
2023-05-09T06:49:01.603Z,354.38
2023-05-09T06:50:01.798Z,365.62
2023-05-09T06:51:01.949Z,371.25
2023-05-09T06:52:02.130Z,376.88
2023-05-09T06:53:02.327Z,382.50
2023-05-09T06:54:02.531Z,388.12
2023-05-09T06:55:02.709Z,393.75
2023-05-09T06:56:02.870Z,399.38
2023-05-09T06:57:03.058Z,410.62
2023-05-09T06:58:03.254Z,416.25
2023-05-09T06:59:03.454Z,421.88
2023-05-09T07:00:03.660Z,433.12
2023-05-09T07:01:03.841Z,438.75
2023-05-09T07:02:04.152Z,450.00
2023-05-09T07:03:04.354Z,455.62
2023-05-09T07:04:04.380Z,461.25
2023-05-09T07:05:04.621Z,472.50
2023-05-09T07:06:04.746Z,478.12
2023-05-09T07:07:04.936Z,483.75
2023-05-09T07:08:05.120Z,489.38
2023-05-09T07:09:05.316Z,495.00
2023-05-09T07:10:11.172Z,500.62
2023-05-09T07:11:05.685Z,511.88
2023-05-09T07:12:05.894Z,511.88
2023-05-09T07:13:06.080Z,517.50
2023-05-09T07:14:06.265Z,523.12
2023-05-09T07:15:06.440Z,528.75
2023-05-09T07:16:06.753Z,534.38
2023-05-09T07:17:22.035Z,534.38
2023-05-09T07:18:07.031Z,534.38
2023-05-09T07:19:07.135Z,534.38
2023-05-09T07:20:07.346Z,534.38
2023-05-09T07:21:07.512Z,534.38
2023-05-09T07:22:07.805Z,528.75
2023-05-09T07:23:07.896Z,528.75
2023-05-09T07:24:08.089Z,523.12
2023-05-09T07:25:08.343Z,523.12
2023-05-09T07:26:08.476Z,517.50
2023-05-09T07:27:08.631Z,511.88
2023-05-09T07:28:08.850Z,506.25
2023-05-09T07:29:09.061Z,506.25
2023-05-09T07:30:09.291Z,500.62
2023-05-09T07:31:09.424Z,495.00
2023-05-09T07:32:09.639Z,495.00
2023-05-09T07:33:09.776Z,495.00
2023-05-09T07:34:09.948Z,489.38
2023-05-09T07:35:10.180Z,489.38
2023-05-09T07:36:10.321Z,489.38
2023-05-09T07:37:10.797Z,489.38
2023-05-09T07:38:10.716Z,495.00
2023-05-09T07:39:10.888Z,495.00
2023-05-09T07:40:11.110Z,500.62
2023-05-09T07:41:11.258Z,495.00
2023-05-09T07:42:11.455Z,489.38
2023-05-09T07:43:11.597Z,478.12
2023-05-09T07:44:11.794Z,466.88
2023-05-09T07:45:12.032Z,455.62
2023-05-09T07:46:12.246Z,450.00
2023-05-09T07:47:12.336Z,444.38
2023-05-09T07:48:12.551Z,444.38
2023-05-09T07:49:12.731Z,444.38
2023-05-09T07:50:12.920Z,438.75
2023-05-09T07:51:13.089Z,438.75
2023-05-09T07:52:13.244Z,438.75
2023-05-09T07:53:13.451Z,438.75
2023-05-09T07:54:13.624Z,433.12
2023-05-09T07:55:14.145Z,433.12
2023-05-09T07:56:13.994Z,427.50
2023-05-09T07:57:14.196Z,421.88
2023-05-09T07:58:14.366Z,421.88
2023-05-09T07:59:14.567Z,421.88
2023-05-09T08:00:14.779Z,421.88
2023-05-09T08:01:14.944Z,416.25
2023-05-09T08:02:15.197Z,410.62
2023-05-09T08:03:15.624Z,405.00
2023-05-09T08:04:15.501Z,399.38
2023-05-09T08:05:15.989Z,393.75
2023-05-09T08:06:15.846Z,388.12
2023-05-09T08:07:16.056Z,376.88
2023-05-09T08:08:16.281Z,371.25
2023-05-09T08:09:16.413Z,371.25
2023-05-09T08:10:16.686Z,371.25
2023-05-09T08:11:16.778Z,371.25
2023-05-09T08:12:16.984Z,371.25
2023-05-09T08:13:17.216Z,376.88
2023-05-09T08:14:17.362Z,382.50
2023-05-09T08:15:17.738Z,388.12
2023-05-09T08:16:17.823Z,393.75
2023-05-09T08:17:17.941Z,405.00
2023-05-09T08:18:18.130Z,416.25
2023-05-09T08:19:18.323Z,421.88
2023-05-09T08:20:18.544Z,427.50
2023-05-09T08:21:20.814Z,438.75
2023-05-09T08:22:18.900Z,450.00
2023-05-09T08:23:19.089Z,455.62
2023-05-09T08:24:19.282Z,461.25
2023-05-09T08:25:19.493Z,461.25
2023-05-09T08:26:19.668Z,455.62
2023-05-09T08:27:19.875Z,455.62
2023-05-09T08:28:20.933Z,450.00
2023-05-09T08:29:20.223Z,444.38
2023-05-09T08:30:20.448Z,444.38
2023-05-09T08:31:20.614Z,444.38
2023-05-09T08:32:20.751Z,444.38
2023-05-09T08:33:20.945Z,444.38
2023-05-09T08:34:21.140Z,444.38
2023-05-09T08:35:21.366Z,438.75
2023-05-09T08:36:21.527Z,433.12
2023-05-09T08:37:21.721Z,427.50
2023-05-09T08:38:21.940Z,421.88
2023-05-09T08:39:22.106Z,421.88
2023-05-09T08:40:22.472Z,421.88
2023-05-09T08:41:22.474Z,427.50
2023-05-09T08:42:25.521Z,427.50
2023-05-09T08:43:22.886Z,427.50
2023-05-09T08:44:23.053Z,427.50
2023-05-09T08:45:23.252Z,427.50
2023-05-09T08:46:23.462Z,433.12
2023-05-09T08:47:23.627Z,433.12
2023-05-09T08:48:23.796Z,433.12
2023-05-09T08:49:23.955Z,433.12
2023-05-09T08:50:24.180Z,433.12
2023-05-09T08:51:24.360Z,438.75
2023-05-09T08:52:24.522Z,438.75
2023-05-09T08:53:24.714Z,444.38
2023-05-09T08:54:24.893Z,450.00
2023-05-09T08:55:25.132Z,455.62
2023-05-09T08:56:25.288Z,461.25
2023-05-09T08:57:25.473Z,472.50
2023-05-09T08:58:25.657Z,478.12
2023-05-09T08:59:25.838Z,483.75
2023-05-09T09:00:26.057Z,489.38
2023-05-09T09:01:26.272Z,495.00
2023-05-09T09:02:26.455Z,495.00
2023-05-09T09:03:26.622Z,500.62
2023-05-09T09:04:26.833Z,500.62
2023-05-09T09:05:40.692Z,500.62
2023-05-09T09:06:27.185Z,495.00
2023-05-09T09:07:28.389Z,489.38
2023-05-09T09:08:27.611Z,489.38
2023-05-09T09:09:27.756Z,483.75
2023-05-09T09:10:27.951Z,495.00
2023-05-09T09:11:28.130Z,618.75
2023-05-09T09:12:28.329Z,787.50
2023-05-09T09:13:28.634Z,832.50
2023-05-09T09:14:28.711Z,810.00
2023-05-09T09:15:28.940Z,804.38
2023-05-09T09:16:29.188Z,815.62
2023-05-09T09:17:29.346Z,871.88
2023-05-09T09:18:29.518Z,911.25
2023-05-09T09:19:29.718Z,866.25
2023-05-09T09:20:29.936Z,793.12
2023-05-09T09:21:30.101Z,793.12
2023-05-09T09:22:30.285Z,843.75
2023-05-09T09:23:30.505Z,888.75
2023-05-09T09:24:30.681Z,905.62
2023-05-09T09:25:30.905Z,939.38
2023-05-09T09:26:31.044Z,950.62
2023-05-09T09:27:31.237Z,956.25
2023-05-09T09:28:31.442Z,990.00
2023-05-09T09:29:31.653Z,973.12
2023-05-09T09:30:31.872Z,950.62
2023-05-09T09:31:32.097Z,984.38
2023-05-09T09:32:32.266Z,978.75
2023-05-09T09:33:32.463Z,950.62
2023-05-09T09:34:33.915Z,939.38
2023-05-09T09:35:32.895Z,911.25
2023-05-09T09:36:33.082Z,911.25
2023-05-09T09:37:33.260Z,945.00
2023-05-09T09:38:33.464Z,950.62
2023-05-09T09:39:33.671Z,984.38
2023-05-09T09:40:33.917Z,1063.12
2023-05-09T09:41:34.043Z,1108.12
2023-05-09T09:42:34.264Z,1175.62
2023-05-09T09:43:34.474Z,1260.00
2023-05-09T09:44:34.682Z,1389.38
2023-05-09T09:45:34.938Z,1434.38
2023-05-09T09:46:35.180Z,1361.25
2023-05-09T09:47:35.348Z,1350.00
2023-05-09T09:48:35.558Z,1366.88
2023-05-09T09:49:35.659Z,1321.88
2023-05-09T09:50:35.833Z,1417.50
2023-05-09T09:51:36.023Z,1518.75
2023-05-09T09:52:36.222Z,1535.62
2023-05-09T09:53:36.442Z,1524.38
2023-05-09T09:54:36.646Z,1530.00
2023-05-09T09:55:36.859Z,1535.62
2023-05-09T09:56:37.096Z,1501.88
2023-05-09T09:57:37.288Z,1434.38
2023-05-09T09:58:37.503Z,1445.62
2023-05-09T09:59:37.716Z,1473.75
2023-05-09T10:00:37.940Z,1428.75
2023-05-09T10:01:38.140Z,1496.25
2023-05-09T10:02:38.961Z,1603.12
2023-05-09T10:03:38.577Z,1681.88
2023-05-09T10:04:38.838Z,1766.25
2023-05-09T10:05:38.997Z,1749.38
2023-05-09T10:06:39.174Z,1704.38
2023-05-09T10:07:39.334Z,1693.12
2023-05-09T10:08:39.547Z,1687.50
2023-05-09T10:09:39.758Z,1721.25
2023-05-09T10:10:39.986Z,2148.75
2023-05-09T10:11:40.204Z,3178.12
2023-05-09T10:12:40.472Z,3796.88
2023-05-09T10:13:40.594Z,3920.62
2023-05-09T10:14:40.816Z,4078.12
2023-05-09T10:15:52.310Z,4201.88
2023-05-09T10:16:44.462Z,3909.38
2023-05-09T10:17:41.577Z,3903.75
2023-05-09T10:18:41.912Z,4252.50
2023-05-09T10:19:41.817Z,4201.88
2023-05-09T10:20:41.995Z,4061.25
2023-05-09T10:21:42.230Z,4050.00
2023-05-09T10:22:42.418Z,4066.88
2023-05-09T10:23:42.615Z,3976.88
2023-05-09T10:24:42.828Z,3690.00
2023-05-09T10:25:43.047Z,3701.25
2023-05-09T10:26:43.299Z,4218.75
2023-05-09T10:27:43.466Z,4230.00
2023-05-09T10:28:43.648Z,4134.38
2023-05-09T10:29:43.872Z,4078.12
2023-05-09T10:30:44.046Z,3875.62
2023-05-09T10:31:44.343Z,3813.75
2023-05-09T10:32:44.508Z,4033.12
2023-05-09T10:33:44.672Z,4038.75
2023-05-09T10:34:44.862Z,3960.00
2023-05-09T10:35:45.045Z,4162.50
2023-05-09T10:36:45.224Z,4196.25
2023-05-09T10:37:45.483Z,3436.88
2023-05-09T10:38:45.640Z,2874.38
2023-05-09T10:39:45.843Z,2992.50
2023-05-09T10:40:46.065Z,2795.62
2023-05-09T10:41:46.247Z,3150.00
2023-05-09T10:42:46.505Z,3279.38
2023-05-09T10:43:46.675Z,3178.12
2023-05-09T10:44:46.858Z,3037.50
2023-05-09T10:45:47.070Z,3015.00
2023-05-09T10:46:47.348Z,3060.00
2023-05-09T10:47:47.548Z,2925.00
2023-05-09T10:48:47.658Z,2857.50
2023-05-09T10:49:47.835Z,2621.25
2023-05-09T10:50:48.106Z,2745.00
2023-05-09T10:51:48.267Z,2328.75
2023-05-09T10:52:48.487Z,2514.38
2023-05-09T10:53:48.749Z,2846.25
2023-05-09T10:54:48.881Z,2868.75
2023-05-09T10:55:49.078Z,2941.88
2023-05-09T10:56:49.242Z,3127.50
2023-05-09T10:57:49.479Z,2958.75
2023-05-09T10:58:49.731Z,3037.50
2023-05-09T10:59:49.842Z,3031.88
2023-05-09T11:00:50.048Z,2975.62
2023-05-09T11:01:50.301Z,2745.00
2023-05-09T11:02:50.553Z,2896.88
2023-05-09T11:03:50.800Z,2947.50
2023-05-09T11:04:50.857Z,2913.75
2023-05-09T11:05:51.087Z,2896.88
2023-05-09T11:06:51.673Z,2975.62
2023-05-09T11:07:52.345Z,2868.75
2023-05-09T11:08:51.680Z,2818.12
2023-05-09T11:09:51.932Z,2941.88
2023-05-09T11:10:52.091Z,2947.50
2023-05-09T11:11:52.303Z,2874.38
2023-05-09T11:12:52.584Z,2677.50
2023-05-09T11:13:52.725Z,2626.88
2023-05-09T11:14:52.908Z,2728.12
2023-05-09T11:15:53.188Z,2891.25
2023-05-09T11:16:53.297Z,3397.50
2023-05-09T11:17:53.567Z,3313.12
2023-05-09T11:18:53.740Z,2986.88
2023-05-09T11:19:53.968Z,2846.25
2023-05-09T11:20:54.157Z,2761.88
2023-05-09T11:21:54.329Z,2823.75
2023-05-09T11:22:54.544Z,2784.38
2023-05-09T11:23:55.335Z,2801.25
2023-05-09T11:24:54.929Z,2666.25
2023-05-09T11:25:55.133Z,2722.50
2023-05-09T11:26:55.318Z,2700.00
2023-05-09T11:27:55.536Z,2660.62
2023-05-09T11:28:55.708Z,2666.25
2023-05-09T11:29:55.944Z,2638.12
2023-05-09T11:30:56.618Z,2576.25
2023-05-09T11:31:56.350Z,2632.50
2023-05-09T11:32:56.598Z,2694.38
2023-05-09T11:33:56.713Z,2750.62
2023-05-09T11:34:56.938Z,2761.88
2023-05-09T11:35:57.158Z,2700.00
2023-05-09T11:36:57.337Z,2688.75
2023-05-09T11:37:57.569Z,2660.62
2023-05-09T11:38:57.761Z,2536.88
2023-05-09T11:39:57.940Z,2503.12
2023-05-09T11:40:58.930Z,2520.00
2023-05-09T11:41:58.342Z,2610.00
2023-05-09T11:42:59.036Z,2671.88
2023-05-09T11:43:58.761Z,2610.00
2023-05-09T11:44:58.912Z,2632.50
2023-05-09T11:45:59.145Z,2700.00
2023-05-09T11:46:59.308Z,2761.88
2023-05-09T11:47:59.551Z,2705.62
2023-05-09T11:48:59.706Z,2598.75
2023-05-09T11:49:59.910Z,1856.25
2023-05-09T11:51:00.145Z,1237.50
2023-05-09T11:52:00.358Z,1164.38
2023-05-09T11:53:00.552Z,1136.25
2023-05-09T11:54:00.716Z,1119.38
2023-05-09T11:55:00.921Z,1113.75
2023-05-09T11:56:01.135Z,1113.75
2023-05-09T11:57:01.344Z,1136.25
2023-05-09T11:58:01.591Z,1158.75
2023-05-09T11:59:01.754Z,1271.25
2023-05-09T12:00:01.951Z,1890.00
2023-05-09T12:01:02.182Z,2345.62
2023-05-09T12:02:02.354Z,2334.38
2023-05-09T12:03:02.620Z,2390.62
2023-05-09T12:04:02.865Z,2396.25
2023-05-09T12:05:02.951Z,2311.88
2023-05-09T12:06:03.113Z,2210.62
2023-05-09T12:07:03.288Z,1771.88
2023-05-09T12:08:03.487Z,1603.12
2023-05-09T12:09:03.669Z,1648.12
2023-05-09T12:10:03.887Z,1659.38
2023-05-09T12:11:04.103Z,1648.12
2023-05-09T12:12:04.304Z,1620.00
2023-05-09T12:13:04.563Z,1642.50
2023-05-09T12:14:04.691Z,1704.38
2023-05-09T12:15:04.923Z,1704.38
2023-05-09T12:16:05.101Z,1681.88
2023-05-09T12:17:05.290Z,1681.88
2023-05-09T12:18:05.798Z,1704.38
2023-05-09T12:19:05.737Z,1721.25
2023-05-09T12:20:05.938Z,1726.88
2023-05-09T12:21:06.101Z,1726.88
2023-05-09T12:22:06.292Z,1738.12
2023-05-09T12:23:06.521Z,1710.00
2023-05-09T12:24:06.706Z,1732.50
2023-05-09T12:25:06.914Z,1755.00
2023-05-09T12:26:07.109Z,1760.62
2023-05-09T12:27:07.314Z,1771.88
2023-05-09T12:28:07.518Z,1805.62
2023-05-09T12:29:07.684Z,1800.00
2023-05-09T12:30:08.137Z,1760.62
2023-05-09T12:31:08.129Z,1687.50
2023-05-09T12:32:08.304Z,1698.75
2023-05-09T12:33:08.508Z,1749.38
2023-05-09T12:34:08.678Z,1788.75
2023-05-09T12:35:08.851Z,1766.25
2023-05-09T12:36:09.082Z,1710.00
2023-05-09T12:37:09.240Z,1743.75
2023-05-09T12:38:09.516Z,1777.50
2023-05-09T12:39:09.686Z,1783.12
2023-05-09T12:40:09.867Z,1828.12
2023-05-09T12:41:21.955Z,1867.50
2023-05-09T12:42:10.266Z,1923.75
2023-05-09T12:43:10.598Z,1861.88